createdAt,value
2022-12-08T00:01:27.463Z,0.23
2022-12-08T00:03:55.566Z,0.35
2022-12-08T00:06:54.312Z,0.38
2022-12-08T00:09:32.023Z,0.41
2022-12-08T00:12:08.643Z,0.43
2022-12-08T00:14:44.453Z,0.42
2022-12-08T00:17:13.537Z,0.50
2022-12-08T00:19:41.819Z,0.50
2022-12-08T00:22:10.744Z,0.60
2022-12-08T00:24:40.578Z,0.61
2022-12-08T00:27:09.283Z,0.59
2022-12-08T00:29:37.090Z,0.63
2022-12-08T00:32:05.088Z,0.62
2022-12-08T00:34:33.103Z,0.63
2022-12-08T00:37:00.518Z,0.56
2022-12-08T00:39:27.635Z,0.63
2022-12-08T00:42:12.879Z,0.62
2022-12-08T00:44:44.240Z,0.66
2022-12-08T00:47:11.955Z,0.68
2022-12-08T00:49:39.033Z,0.63
2022-12-08T00:52:06.506Z,0.61
2022-12-08T00:54:33.776Z,0.74
2022-12-08T00:57:00.823Z,0.78
2022-12-08T00:59:27.802Z,0.68
2022-12-08T01:01:54.834Z,0.80
2022-12-08T01:04:22.012Z,0.80
2022-12-08T01:06:49.833Z,0.78
2022-12-08T01:09:18.150Z,0.76
2022-12-08T01:11:45.655Z,0.72
2022-12-08T01:14:13.678Z,0.76
2022-12-08T01:16:44.070Z,0.75
2022-12-08T01:19:15.938Z,0.57
2022-12-08T01:21:43.942Z,0.75
2022-12-08T01:24:12.904Z,0.68
2022-12-08T01:26:40.476Z,0.79
2022-12-08T01:29:07.957Z,0.80
2022-12-08T01:31:35.178Z,0.82
2022-12-08T01:34:02.478Z,0.68
2022-12-08T01:36:31.804Z,0.78
2022-12-08T01:39:00.893Z,0.84
2022-12-08T01:41:33.422Z,0.86
2022-12-08T01:44:04.254Z,0.75
2022-12-08T01:46:33.589Z,0.88
2022-12-08T01:49:09.269Z,0.86
2022-12-08T01:51:42.788Z,0.91
2022-12-08T01:54:11.943Z,0.78
2022-12-08T01:57:01.162Z,0.88
2022-12-08T01:59:30.826Z,0.94
2022-12-08T02:01:58.454Z,0.96
2022-12-08T02:04:25.651Z,0.93
2022-12-08T02:06:53.828Z,0.75
2022-12-08T02:09:22.076Z,0.97
2022-12-08T02:11:50.620Z,0.97
2022-12-08T02:14:17.773Z,0.84
2022-12-08T02:17:14.793Z,1.00
2022-12-08T02:20:19.475Z,1.01
2022-12-08T02:22:57.297Z,1.03
2022-12-08T02:25:33.420Z,1.04
2022-12-08T02:28:38.102Z,0.93
2022-12-08T02:31:56.149Z,1.07
2022-12-08T02:34:47.662Z,1.07
2022-12-08T02:37:26.847Z,1.07
2022-12-08T02:40:22.343Z,1.07
2022-12-08T02:42:57.893Z,1.05
2022-12-08T02:45:39.221Z,1.06
2022-12-08T02:48:09.419Z,1.01
2022-12-08T02:50:36.513Z,1.08
2022-12-08T02:55:50.202Z,1.00
2022-12-08T02:58:29.134Z,1.14
2022-12-08T03:01:17.884Z,1.05
2022-12-08T03:03:47.923Z,1.17
2022-12-08T03:06:33.565Z,1.05
2022-12-08T03:09:21.843Z,1.18
2022-12-08T03:12:20.304Z,1.19
2022-12-08T03:14:53.923Z,1.02
2022-12-08T03:17:22.309Z,1.12
2022-12-08T03:19:50.319Z,1.07
2022-12-08T03:22:22.351Z,1.07
2022-12-08T03:24:50.160Z,1.07
2022-12-08T03:27:21.831Z,0.98
2022-12-08T03:29:51.051Z,1.14
2022-12-08T03:32:29.436Z,1.12
2022-12-08T03:34:59.325Z,1.08
2022-12-08T03:37:28.295Z,0.98
2022-12-08T03:39:55.739Z,1.14
2022-12-08T03:42:22.898Z,1.17
2022-12-08T03:44:49.916Z,1.12
2022-12-08T03:47:16.980Z,1.12
2022-12-08T03:49:43.934Z,1.11
2022-12-08T03:52:10.901Z,1.09
2022-12-08T03:54:37.961Z,1.13
2022-12-08T03:57:05.003Z,1.14
2022-12-08T03:59:32.041Z,1.17
2022-12-08T04:01:59.032Z,1.05
2022-12-08T04:04:26.110Z,1.08
2022-12-08T04:06:53.058Z,1.21
2022-12-08T04:09:20.147Z,1.29
2022-12-08T04:11:47.106Z,1.29
2022-12-08T04:14:14.185Z,1.29
2022-12-08T04:16:41.359Z,1.25
2022-12-08T04:19:08.491Z,1.24
2022-12-08T04:21:37.142Z,1.23
2022-12-08T04:24:04.297Z,1.22
2022-12-08T04:26:31.368Z,1.24
2022-12-08T04:28:58.321Z,1.23
2022-12-08T04:31:25.450Z,1.21
2022-12-08T04:33:52.429Z,1.24
2022-12-08T04:36:19.451Z,1.29
2022-12-08T04:38:46.386Z,1.28
2022-12-08T04:41:13.467Z,1.30
2022-12-08T04:43:41.493Z,1.32
2022-12-08T04:46:09.463Z,1.38
2022-12-08T04:48:41.310Z,1.39
2022-12-08T04:51:15.916Z,1.38
2022-12-08T04:53:46.743Z,1.41
2022-12-08T04:56:15.949Z,1.39
2022-12-08T04:58:43.224Z,1.30
2022-12-08T05:01:10.647Z,1.43
2022-12-08T05:03:37.983Z,1.37
2022-12-08T05:06:05.508Z,1.36
2022-12-08T05:08:32.898Z,1.25
2022-12-08T05:11:05.667Z,1.32
2022-12-08T05:13:33.147Z,1.34
2022-12-08T05:16:13.137Z,1.46
2022-12-08T05:18:42.062Z,1.46
2022-12-08T05:21:09.892Z,1.46
2022-12-08T05:23:37.014Z,1.49
2022-12-08T05:26:04.047Z,1.47
2022-12-08T05:28:46.352Z,1.52
2022-12-08T05:31:15.404Z,1.53
2022-12-08T05:33:43.164Z,1.48
2022-12-08T05:36:12.926Z,1.52
2022-12-08T05:38:40.759Z,1.51
2022-12-08T05:41:09.069Z,1.56
2022-12-08T05:43:36.334Z,1.44
2022-12-08T05:46:03.688Z,1.49
2022-12-08T05:48:30.852Z,1.47
2022-12-08T05:50:58.113Z,1.52
2022-12-08T05:53:25.261Z,1.54
2022-12-08T05:55:52.255Z,1.55
2022-12-08T05:58:22.564Z,1.56
2022-12-08T06:00:50.843Z,1.53
2022-12-08T06:03:19.942Z,1.54
2022-12-08T06:05:47.983Z,1.55
2022-12-08T06:08:15.445Z,1.55
2022-12-08T06:10:44.079Z,1.66
2022-12-08T06:13:11.437Z,1.71
2022-12-08T06:15:39.265Z,1.69
2022-12-08T06:18:07.126Z,1.67
2022-12-08T06:20:34.880Z,1.57
2022-12-08T06:23:02.361Z,1.65
2022-12-08T06:25:29.401Z,1.67
2022-12-08T06:27:56.399Z,1.61
2022-12-08T06:30:23.542Z,1.72
2022-12-08T06:32:50.601Z,1.71
2022-12-08T06:35:17.661Z,1.71
2022-12-08T06:37:44.719Z,1.73
2022-12-08T06:40:12.399Z,1.75
2022-12-08T06:42:45.472Z,1.63
2022-12-08T06:45:14.915Z,1.76
2022-12-08T06:47:42.219Z,1.79
2022-12-08T06:50:11.434Z,1.87
2022-12-08T06:52:47.268Z,1.90
2022-12-08T06:55:42.532Z,1.90
2022-12-08T06:58:07.426Z,1.91
2022-12-08T07:00:34.441Z,1.88
2022-12-08T07:03:01.514Z,1.63
2022-12-08T07:05:28.535Z,1.90
2022-12-08T07:07:56.044Z,1.94
2022-12-08T07:10:23.020Z,1.97
2022-12-08T07:12:50.133Z,2.02
2022-12-08T07:15:17.167Z,1.96
2022-12-08T07:17:44.376Z,2.02
2022-12-08T07:20:11.686Z,2.18
2022-12-08T07:22:38.626Z,2.11
2022-12-08T07:25:06.284Z,2.26
2022-12-08T07:27:33.307Z,2.31
2022-12-08T07:30:00.252Z,2.35
2022-12-08T07:32:27.386Z,2.41
2022-12-08T07:34:54.350Z,2.45
2022-12-08T07:37:21.289Z,2.49
2022-12-08T07:39:48.513Z,2.41
2022-12-08T07:42:15.460Z,2.52
2022-12-08T07:44:46.759Z,2.58
2022-12-08T07:47:14.002Z,2.51
2022-12-08T07:49:41.049Z,2.61
2022-12-08T07:52:08.028Z,2.66
2022-12-08T07:54:35.030Z,2.70
2022-12-08T07:57:03.882Z,2.65
2022-12-08T07:59:30.838Z,2.78
2022-12-08T08:02:21.292Z,2.84
2022-12-08T08:04:45.145Z,2.93
2022-12-08T08:07:12.617Z,2.87
2022-12-08T08:09:39.822Z,3.04
2022-12-08T08:12:30.360Z,3.10
2022-12-08T08:14:53.884Z,3.21
2022-12-08T08:17:21.106Z,3.27
2022-12-08T08:19:48.275Z,3.33
2022-12-08T08:22:15.212Z,3.51
2022-12-08T08:24:45.083Z,3.58
2022-12-08T08:27:12.721Z,3.47
2022-12-08T08:29:39.750Z,3.61
2022-12-08T08:32:06.745Z,3.66
2022-12-08T08:34:33.790Z,3.77
2022-12-08T08:37:00.909Z,3.76
2022-12-08T08:39:28.038Z,3.88
2022-12-08T08:41:54.990Z,3.96
2022-12-08T08:44:22.080Z,3.91
2022-12-08T08:46:49.211Z,4.06
2022-12-08T08:49:16.287Z,4.23
2022-12-08T08:51:44.016Z,4.48
2022-12-08T08:54:11.607Z,4.57
2022-12-08T08:56:38.596Z,4.77
2022-12-08T08:59:05.701Z,4.94
2022-12-08T09:01:32.924Z,4.98
2022-12-08T09:04:00.096Z,5.22
2022-12-08T09:06:28.562Z,5.24
2022-12-08T09:08:56.045Z,5.26
2022-12-08T09:11:26.052Z,5.32
2022-12-08T09:13:54.904Z,5.36
2022-12-08T09:16:22.928Z,5.40
2022-12-08T09:18:50.812Z,5.35
2022-12-08T09:21:22.925Z,5.46
2022-12-08T09:23:58.096Z,5.44
2022-12-08T09:26:26.739Z,5.55
2022-12-08T09:28:55.331Z,5.57
2022-12-08T09:31:23.977Z,5.64
2022-12-08T09:33:54.352Z,5.68
2022-12-08T09:36:21.615Z,5.75
2022-12-08T09:38:49.409Z,5.86
2022-12-08T09:41:40.320Z,5.84
2022-12-08T09:44:36.677Z,5.95
2022-12-08T09:47:13.543Z,6.02
2022-12-08T09:49:47.345Z,6.11
2022-12-08T09:52:25.316Z,6.10
2022-12-08T09:54:52.669Z,6.42
2022-12-08T09:57:24.656Z,6.61
2022-12-08T10:00:06.264Z,6.74
2022-12-08T10:02:33.792Z,6.99
2022-12-08T10:05:00.968Z,7.11
2022-12-08T10:07:32.473Z,7.29
2022-12-08T10:10:16.039Z,7.51
2022-12-08T10:13:19.918Z,7.63
2022-12-08T10:16:10.489Z,7.61
2022-12-08T10:18:40.779Z,7.48
2022-12-08T10:21:20.744Z,7.45
2022-12-08T10:23:55.738Z,7.49
2022-12-08T10:26:23.064Z,7.47
2022-12-08T10:28:50.730Z,7.53
2022-12-08T10:31:20.627Z,7.36
2022-12-08T10:33:51.479Z,7.25
2022-12-08T10:36:18.580Z,7.23
2022-12-08T10:38:45.649Z,7.15
2022-12-08T10:41:12.734Z,7.04
2022-12-08T10:44:03.080Z,7.00
2022-12-08T10:46:30.471Z,6.88
2022-12-08T10:49:06.460Z,6.83
2022-12-08T10:51:33.352Z,6.79
2022-12-08T10:54:01.046Z,6.78
2022-12-08T10:56:30.596Z,6.80
2022-12-08T10:59:17.589Z,6.78
2022-12-08T11:01:53.297Z,6.72
2022-12-08T11:04:24.293Z,6.70
2022-12-08T11:06:52.819Z,6.51
2022-12-08T11:09:19.812Z,6.54
2022-12-08T11:11:53.994Z,6.47
2022-12-08T11:14:26.820Z,6.45
2022-12-08T11:17:05.825Z,6.37
2022-12-08T11:19:37.984Z,6.27
2022-12-08T11:22:35.788Z,6.26
2022-12-08T11:25:08.641Z,6.17
2022-12-08T11:27:38.023Z,6.00
2022-12-08T11:30:17.444Z,5.98
2022-12-08T11:32:49.998Z,6.06
2022-12-08T11:35:30.209Z,5.94
2022-12-08T11:38:19.777Z,5.81
2022-12-08T11:40:50.552Z,5.72
2022-12-08T11:43:35.759Z,5.93
2022-12-08T11:46:09.897Z,5.86
2022-12-08T11:49:05.582Z,5.92
2022-12-08T11:51:59.177Z,5.70
2022-12-08T11:55:03.307Z,5.78
2022-12-08T11:57:30.729Z,5.66
2022-12-08T11:59:59.019Z,5.56
2022-12-08T12:02:30.137Z,5.67
2022-12-08T12:05:08.257Z,5.60
2022-12-08T12:07:58.498Z,5.51
2022-12-08T12:10:35.909Z,5.59
2022-12-08T12:13:25.825Z,5.61
2022-12-08T12:16:23.889Z,5.61
2022-12-08T12:18:56.240Z,5.62
2022-12-08T12:21:32.652Z,5.68
2022-12-08T12:24:02.051Z,5.65
2022-12-08T12:26:31.372Z,5.68
2022-12-08T12:29:20.297Z,5.51
2022-12-08T12:32:09.092Z,5.72
2022-12-08T12:34:44.870Z,5.75
2022-12-08T12:37:15.539Z,5.72
2022-12-08T12:39:48.891Z,5.65
2022-12-08T12:42:51.228Z,5.72
2022-12-08T12:45:18.164Z,5.72
2022-12-08T12:47:57.457Z,5.68
2022-12-08T12:50:33.843Z,5.64
2022-12-08T12:53:09.151Z,5.64
2022-12-08T12:55:54.617Z,5.62
2022-12-08T12:58:27.662Z,5.59
2022-12-08T13:01:13.104Z,5.62
2022-12-08T13:03:50.123Z,5.59
2022-12-08T13:06:33.742Z,5.59
2022-12-08T13:09:00.979Z,5.53
2022-12-08T13:11:28.084Z,5.60
2022-12-08T13:14:04.516Z,5.59
2022-12-08T13:16:39.090Z,5.62
2022-12-08T13:19:14.371Z,5.63
2022-12-08T13:21:41.833Z,5.66
2022-12-08T13:24:14.885Z,5.67
2022-12-08T13:27:04.195Z,5.70
2022-12-08T13:29:40.484Z,5.54
2022-12-08T13:32:07.428Z,5.61
2022-12-08T13:34:49.101Z,5.53
2022-12-08T13:37:25.577Z,5.59
2022-12-08T13:40:19.184Z,5.60
2022-12-08T13:43:15.359Z,5.57
2022-12-08T13:46:52.944Z,5.47
2022-12-08T13:55:59.030Z,5.40
2022-12-08T13:57:34.574Z,5.29
2022-12-08T14:00:07.634Z,5.25
2022-12-08T14:02:47.743Z,5.16
2022-12-08T14:05:34.605Z,5.10
2022-12-08T14:08:57.771Z,5.09
2022-12-08T14:11:33.849Z,5.14
2022-12-08T14:14:03.652Z,5.09
2022-12-08T14:16:41.277Z,5.14
2022-12-08T14:19:23.688Z,5.15
2022-12-08T14:21:56.602Z,5.15
2022-12-08T14:24:25.129Z,5.12
2022-12-08T14:26:55.165Z,5.09
2022-12-08T14:29:52.801Z,5.00
2022-12-08T14:32:43.021Z,4.86
2022-12-08T14:35:10.122Z,4.93
2022-12-08T14:37:48.574Z,4.90
2022-12-08T14:40:23.109Z,4.88
2022-12-08T14:43:16.823Z,4.83
2022-12-08T14:45:43.764Z,4.77
2022-12-08T14:48:33.893Z,4.82
2022-12-08T14:51:03.994Z,4.70
2022-12-08T14:53:40.025Z,4.79
2022-12-08T14:56:12.368Z,4.80
2022-12-08T14:58:39.512Z,4.76
2022-12-08T15:01:08.578Z,4.70
2022-12-08T15:03:36.713Z,4.74
2022-12-08T15:06:06.914Z,4.80
2022-12-08T15:08:35.527Z,4.80
2022-12-08T16:41:43.347Z,4.51
